sensor_id;sensor_type;location;lat;lon;timestamp;temperature;humidity
65074;DHT22;52218;51.224;-2.328;2022-07-23T00:01:31;15.30;99.60
65074;DHT22;52218;51.224;-2.328;2022-07-23T00:05:14;15.20;99.80
65074;DHT22;52218;51.224;-2.328;2022-07-23T00:08:56;15.10;99.50
65074;DHT22;52218;51.224;-2.328;2022-07-23T00:12:39;15.10;99.50
65074;DHT22;52218;51.224;-2.328;2022-07-23T00:16:32;15.00;99.60
65074;DHT22;52218;51.224;-2.328;2022-07-23T00:20:14;14.90;99.50
65074;DHT22;52218;51.224;-2.328;2022-07-23T00:23:56;14.90;99.60
65074;DHT22;52218;51.224;-2.328;2022-07-23T00:27:38;14.80;99.60
65074;DHT22;52218;51.224;-2.328;2022-07-23T00:31:20;14.80;99.70
65074;DHT22;52218;51.224;-2.328;2022-07-23T00:35:02;14.70;99.60
65074;DHT22;52218;51.224;-2.328;2022-07-23T00:38:44;14.60;99.70
65074;DHT22;52218;51.224;-2.328;2022-07-23T00:42:26;14.60;99.80
65074;DHT22;52218;51.224;-2.328;2022-07-23T00:46:08;14.50;99.80
65074;DHT22;52218;51.224;-2.328;2022-07-23T00:49:50;14.50;99.90
65074;DHT22;52218;51.224;-2.328;2022-07-23T00:53:32;14.40;99.90
65074;DHT22;52218;51.224;-2.328;2022-07-23T00:57:14;14.40;99.90
65074;DHT22;52218;51.224;-2.328;2022-07-23T01:00:56;14.30;99.90
65074;DHT22;52218;51.224;-2.328;2022-07-23T01:04:38;14.30;99.90
65074;DHT22;52218;51.224;-2.328;2022-07-23T01:08:20;14.20;99.90
65074;DHT22;52218;51.224;-2.328;2022-07-23T01:12:03;14.10;99.90
65074;DHT22;52218;51.224;-2.328;2022-07-23T01:15:45;14.10;99.90
65074;DHT22;52218;51.224;-2.328;2022-07-23T01:19:27;14.10;99.90
65074;DHT22;52218;51.224;-2.328;2022-07-23T01:23:09;14.00;99.90
65074;DHT22;52218;51.224;-2.328;2022-07-23T01:26:51;13.90;99.90
65074;DHT22;52218;51.224;-2.328;2022-07-23T01:30:33;13.90;99.90
65074;DHT22;52218;51.224;-2.328;2022-07-23T01:34:15;13.80;99.90
65074;DHT22;52218;51.224;-2.328;2022-07-23T01:37:57;13.70;99.90
65074;DHT22;52218;51.224;-2.328;2022-07-23T01:41:39;13.70;99.90
65074;DHT22;52218;51.224;-2.328;2022-07-23T01:45:24;13.60;99.90
65074;DHT22;52218;51.224;-2.328;2022-07-23T01:49:07;13.50;99.90
65074;DHT22;52218;51.224;-2.328;2022-07-23T01:52:49;13.40;99.90
65074;DHT22;52218;51.224;-2.328;2022-07-23T01:56:31;13.30;99.90
65074;DHT22;52218;51.224;-2.328;2022-07-23T02:00:13;13.30;99.90
65074;DHT22;52218;51.224;-2.328;2022-07-23T02:03:55;13.20;99.90
65074;DHT22;52218;51.224;-2.328;2022-07-23T02:07:36;13.20;99.90
65074;DHT22;52218;51.224;-2.328;2022-07-23T02:11:18;13.10;99.90
65074;DHT22;52218;51.224;-2.328;2022-07-23T02:15:00;13.10;99.90
65074;DHT22;52218;51.224;-2.328;2022-07-23T02:18:42;13.10;99.90
65074;DHT22;52218;51.224;-2.328;2022-07-23T02:22:24;13.10;99.90
65074;DHT22;52218;51.224;-2.328;2022-07-23T02:26:06;13.10;99.90
65074;DHT22;52218;51.224;-2.328;2022-07-23T02:29:48;13.00;99.90
65074;DHT22;52218;51.224;-2.328;2022-07-23T02:33:30;13.00;99.90
65074;DHT22;52218;51.224;-2.328;2022-07-23T02:37:12;13.00;99.90
65074;DHT22;52218;51.224;-2.328;2022-07-23T02:40:55;13.00;99.90
65074;DHT22;52218;51.224;-2.328;2022-07-23T02:44:37;13.00;99.90
65074;DHT22;52218;51.224;-2.328;2022-07-23T02:48:19;12.90;99.90
65074;DHT22;52218;51.224;-2.328;2022-07-23T02:52:01;12.90;99.90
65074;DHT22;52218;51.224;-2.328;2022-07-23T02:55:43;12.90;99.90
65074;DHT22;52218;51.224;-2.328;2022-07-23T02:59:25;12.80;99.90
65074;DHT22;52218;51.224;-2.328;2022-07-23T03:03:07;12.80;99.90
65074;DHT22;52218;51.224;-2.328;2022-07-23T03:06:49;12.70;99.90
65074;DHT22;52218;51.224;-2.328;2022-07-23T03:10:31;12.70;99.90
65074;DHT22;52218;51.224;-2.328;2022-07-23T03:14:13;12.70;99.90
65074;DHT22;52218;51.224;-2.328;2022-07-23T03:17:57;12.60;99.90
65074;DHT22;52218;51.224;-2.328;2022-07-23T03:21:40;12.50;99.90
65074;DHT22;52218;51.224;-2.328;2022-07-23T03:25:22;12.50;99.90
65074;DHT22;52218;51.224;-2.328;2022-07-23T03:29:04;12.40;99.90
65074;DHT22;52218;51.224;-2.328;2022-07-23T03:32:46;12.40;99.90
65074;DHT22;52218;51.224;-2.328;2022-07-23T03:36:28;12.30;99.90
65074;DHT22;52218;51.224;-2.328;2022-07-23T03:40:11;12.30;99.90
65074;DHT22;52218;51.224;-2.328;2022-07-23T03:43:53;12.30;99.90
65074;DHT22;52218;51.224;-2.328;2022-07-23T03:47:35;12.30;99.90
65074;DHT22;52218;51.224;-2.328;2022-07-23T03:51:17;12.20;99.90
65074;DHT22;52218;51.224;-2.328;2022-07-23T03:54:58;12.10;99.90
65074;DHT22;52218;51.224;-2.328;2022-07-23T03:58:40;12.10;99.90
65074;DHT22;52218;51.224;-2.328;2022-07-23T04:02:22;12.10;99.90
65074;DHT22;52218;51.224;-2.328;2022-07-23T04:06:05;12.10;99.90
65074;DHT22;52218;51.224;-2.328;2022-07-23T04:09:47;12.00;99.90
65074;DHT22;52218;51.224;-2.328;2022-07-23T04:13:29;12.00;99.90
65074;DHT22;52218;51.224;-2.328;2022-07-23T04:17:12;12.00;99.90
65074;DHT22;52218;51.224;-2.328;2022-07-23T04:20:55;12.00;99.90
65074;DHT22;52218;51.224;-2.328;2022-07-23T04:24:37;11.90;99.90
65074;DHT22;52218;51.224;-2.328;2022-07-23T04:28:19;12.00;99.90
65074;DHT22;52218;51.224;-2.328;2022-07-23T04:32:01;11.90;99.90
65074;DHT22;52218;51.224;-2.328;2022-07-23T04:35:46;11.90;99.90
65074;DHT22;52218;51.224;-2.328;2022-07-23T04:39:28;11.90;99.90
65074;DHT22;52218;51.224;-2.328;2022-07-23T04:43:10;11.90;99.90
65074;DHT22;52218;51.224;-2.328;2022-07-23T04:46:52;11.90;99.90
65074;DHT22;52218;51.224;-2.328;2022-07-23T04:50:34;11.90;99.90
65074;DHT22;52218;51.224;-2.328;2022-07-23T04:54:16;11.90;99.90
65074;DHT22;52218;51.224;-2.328;2022-07-23T04:57:59;12.00;99.90
65074;DHT22;52218;51.224;-2.328;2022-07-23T05:01:41;12.00;99.90
65074;DHT22;52218;51.224;-2.328;2022-07-23T05:05:23;12.10;99.90
65074;DHT22;52218;51.224;-2.328;2022-07-23T05:09:05;12.20;99.90
65074;DHT22;52218;51.224;-2.328;2022-07-23T05:12:47;12.30;99.90
65074;DHT22;52218;51.224;-2.328;2022-07-23T05:16:29;12.40;99.90
65074;DHT22;52218;51.224;-2.328;2022-07-23T05:20:11;12.50;99.90
65074;DHT22;52218;51.224;-2.328;2022-07-23T05:23:55;12.60;99.90
65074;DHT22;52218;51.224;-2.328;2022-07-23T05:27:37;12.80;99.90
65074;DHT22;52218;51.224;-2.328;2022-07-23T05:31:18;12.90;99.90
65074;DHT22;52218;51.224;-2.328;2022-07-23T05:35:00;13.10;99.90
65074;DHT22;52218;51.224;-2.328;2022-07-23T05:38:43;13.30;99.90
65074;DHT22;52218;51.224;-2.328;2022-07-23T05:42:25;13.60;99.90
65074;DHT22;52218;51.224;-2.328;2022-07-23T05:46:07;13.80;99.90
65074;DHT22;52218;51.224;-2.328;2022-07-23T05:49:49;14.00;99.90
65074;DHT22;52218;51.224;-2.328;2022-07-23T05:53:32;14.20;99.90
65074;DHT22;52218;51.224;-2.328;2022-07-23T05:57:14;14.50;99.90
65074;DHT22;52218;51.224;-2.328;2022-07-23T06:00:56;14.70;99.90
65074;DHT22;52218;51.224;-2.328;2022-07-23T06:04:38;14.80;99.90
65074;DHT22;52218;51.224;-2.328;2022-07-23T06:08:20;14.90;99.90
65074;DHT22;52218;51.224;-2.328;2022-07-23T06:12:02;15.00;99.90
65074;DHT22;52218;51.224;-2.328;2022-07-23T06:15:44;15.20;99.90
65074;DHT22;52218;51.224;-2.328;2022-07-23T06:19:26;15.40;99.90
65074;DHT22;52218;51.224;-2.328;2022-07-23T06:23:08;15.50;99.70
65074;DHT22;52218;51.224;-2.328;2022-07-23T06:26:50;15.70;99.70
65074;DHT22;52218;51.224;-2.328;2022-07-23T06:30:32;15.70;99.90
65074;DHT22;52218;51.224;-2.328;2022-07-23T06:34:14;15.80;99.70
65074;DHT22;52218;51.224;-2.328;2022-07-23T06:37:56;15.90;99.60
65074;DHT22;52218;51.224;-2.328;2022-07-23T06:41:38;16.00;99.50
65074;DHT22;52218;51.224;-2.328;2022-07-23T06:45:20;16.00;99.50
65074;DHT22;52218;51.224;-2.328;2022-07-23T06:49:02;16.10;99.70
65074;DHT22;52218;51.224;-2.328;2022-07-23T06:52:47;16.40;99.60
65074;DHT22;52218;51.224;-2.328;2022-07-23T06:56:29;16.80;98.50
65074;DHT22;52218;51.224;-2.328;2022-07-23T07:00:11;17.20;97.70
65074;DHT22;52218;51.224;-2.328;2022-07-23T07:03:53;17.40;97.30
65074;DHT22;52218;51.224;-2.328;2022-07-23T07:07:35;17.50;97.20
65074;DHT22;52218;51.224;-2.328;2022-07-23T07:11:17;17.60;96.90
65074;DHT22;52218;51.224;-2.328;2022-07-23T07:14:59;17.80;96.80
65074;DHT22;52218;51.224;-2.328;2022-07-23T07:18:41;17.90;96.90
65074;DHT22;52218;51.224;-2.328;2022-07-23T07:22:24;18.10;96.80
65074;DHT22;52218;51.224;-2.328;2022-07-23T07:26:06;18.20;96.40
65074;DHT22;52218;51.224;-2.328;2022-07-23T07:29:48;18.40;95.60
65074;DHT22;52218;51.224;-2.328;2022-07-23T07:33:30;18.50;95.70
65074;DHT22;52218;51.224;-2.328;2022-07-23T07:37:12;18.70;95.50
65074;DHT22;52218;51.224;-2.328;2022-07-23T07:40:54;19.00;95.10
65074;DHT22;52218;51.224;-2.328;2022-07-23T07:44:36;19.20;95.10
65074;DHT22;52218;51.224;-2.328;2022-07-23T07:48:18;19.50;94.60
65074;DHT22;52218;51.224;-2.328;2022-07-23T07:52:00;19.70;94.20
65074;DHT22;52218;51.224;-2.328;2022-07-23T07:55:42;19.80;93.80
65074;DHT22;52218;51.224;-2.328;2022-07-23T07:59:32;19.80;93.40
65074;DHT22;52218;51.224;-2.328;2022-07-23T08:03:14;19.90;93.00
65074;DHT22;52218;51.224;-2.328;2022-07-23T08:06:56;19.90;92.80
65074;DHT22;52218;51.224;-2.328;2022-07-23T08:10:38;19.90;93.20
65074;DHT22;52218;51.224;-2.328;2022-07-23T08:14:20;20.00;93.10
65074;DHT22;52218;51.224;-2.328;2022-07-23T08:18:02;20.10;93.60
65074;DHT22;52218;51.224;-2.328;2022-07-23T08:21:44;20.30;92.70
65074;DHT22;52218;51.224;-2.328;2022-07-23T08:25:30;20.40;91.80
65074;DHT22;52218;51.224;-2.328;2022-07-23T08:29:13;20.50;92.10
65074;DHT22;52218;51.224;-2.328;2022-07-23T08:36:44;21.00;92.50
65074;DHT22;52218;51.224;-2.328;2022-07-23T08:40:27;21.50;90.30
65074;DHT22;52218;51.224;-2.328;2022-07-23T08:44:10;21.70;89.70
65074;DHT22;52218;51.224;-2.328;2022-07-23T08:47:55;21.80;90.00
65074;DHT22;52218;51.224;-2.328;2022-07-23T08:51:37;21.90;89.30
65074;DHT22;52218;51.224;-2.328;2022-07-23T08:55:21;21.90;89.10
65074;DHT22;52218;51.224;-2.328;2022-07-23T08:59:03;21.70;89.40
65074;DHT22;52218;51.224;-2.328;2022-07-23T09:02:46;21.80;90.10
65074;DHT22;52218;51.224;-2.328;2022-07-23T09:06:28;22.10;90.10
65074;DHT22;52218;51.224;-2.328;2022-07-23T09:10:11;22.40;87.60
65074;DHT22;52218;51.224;-2.328;2022-07-23T09:13:54;22.60;87.60
65074;DHT22;52218;51.224;-2.328;2022-07-23T09:17:42;22.50;87.60
65074;DHT22;52218;51.224;-2.328;2022-07-23T09:25:18;22.50;88.00
65074;DHT22;52218;51.224;-2.328;2022-07-23T09:33:07;22.60;88.40
65074;DHT22;52218;51.224;-2.328;2022-07-23T09:36:58;22.70;89.10
65074;DHT22;52218;51.224;-2.328;2022-07-23T09:40:40;23.20;86.10
65074;DHT22;52218;51.224;-2.328;2022-07-23T09:44:22;23.70;85.80
65074;DHT22;52218;51.224;-2.328;2022-07-23T09:48:14;24.10;85.60
65074;DHT22;52218;51.224;-2.328;2022-07-23T09:51:59;24.30;85.00
65074;DHT22;52218;51.224;-2.328;2022-07-23T09:55:41;24.10;85.40
65074;DHT22;52218;51.224;-2.328;2022-07-23T09:59:29;23.80;86.50
65074;DHT22;52218;51.224;-2.328;2022-07-23T10:03:13;23.60;86.80
65074;DHT22;52218;51.224;-2.328;2022-07-23T10:07:00;23.40;87.60
65074;DHT22;52218;51.224;-2.328;2022-07-23T10:10:43;23.40;86.80
65074;DHT22;52218;51.224;-2.328;2022-07-23T10:14:27;23.30;87.00
65074;DHT22;52218;51.224;-2.328;2022-07-23T10:18:12;23.40;87.00
65074;DHT22;52218;51.224;-2.328;2022-07-23T10:22:21;23.50;86.50
65074;DHT22;52218;51.224;-2.328;2022-07-23T10:26:17;23.60;87.70
65074;DHT22;52218;51.224;-2.328;2022-07-23T10:30:03;23.50;87.00
65074;DHT22;52218;51.224;-2.328;2022-07-23T10:34:07;23.40;86.90
65074;DHT22;52218;51.224;-2.328;2022-07-23T10:38:00;23.00;87.90
65074;DHT22;52218;51.224;-2.328;2022-07-23T10:41:43;22.80;88.10
65074;DHT22;52218;51.224;-2.328;2022-07-23T11:00:40;22.20;90.30
65074;DHT22;52218;51.224;-2.328;2022-07-23T11:04:48;22.10;90.30
65074;DHT22;52218;51.224;-2.328;2022-07-23T11:08:31;22.10;90.60
65074;DHT22;52218;51.224;-2.328;2022-07-23T11:24:10;21.80;91.10
65074;DHT22;52218;51.224;-2.328;2022-07-23T11:27:53;21.70;91.20
65074;DHT22;52218;51.224;-2.328;2022-07-23T11:31:35;21.70;91.30
65074;DHT22;52218;51.224;-2.328;2022-07-23T11:35:26;21.80;91.30
65074;DHT22;52218;51.224;-2.328;2022-07-23T11:39:09;21.80;91.20
65074;DHT22;52218;51.224;-2.328;2022-07-23T11:43:15;22.10;91.10
65074;DHT22;52218;51.224;-2.328;2022-07-23T11:47:01;22.30;90.70
65074;DHT22;52218;51.224;-2.328;2022-07-23T11:50:46;22.60;90.30
65074;DHT22;52218;51.224;-2.328;2022-07-23T11:54:28;22.70;90.00
65074;DHT22;52218;51.224;-2.328;2022-07-23T11:58:10;22.80;90.00
65074;DHT22;52218;51.224;-2.328;2022-07-23T12:01:59;23.10;89.50
65074;DHT22;52218;51.224;-2.328;2022-07-23T12:05:41;23.30;88.60
65074;DHT22;52218;51.224;-2.328;2022-07-23T12:09:24;23.30;88.90
65074;DHT22;52218;51.224;-2.328;2022-07-23T12:13:11;23.30;88.60
65074;DHT22;52218;51.224;-2.328;2022-07-23T12:17:12;23.20;89.60
65074;DHT22;52218;51.224;-2.328;2022-07-23T12:20:56;23.20;89.40
65074;DHT22;52218;51.224;-2.328;2022-07-23T12:25:16;23.30;89.10
65074;DHT22;52218;51.224;-2.328;2022-07-23T12:28:58;23.40;89.90
65074;DHT22;52218;51.224;-2.328;2022-07-23T12:32:44;23.70;87.80
65074;DHT22;52218;51.224;-2.328;2022-07-23T12:36:37;23.80;87.40
65074;DHT22;52218;51.224;-2.328;2022-07-23T12:44:25;23.80;87.70
65074;DHT22;52218;51.224;-2.328;2022-07-23T12:48:08;23.60;88.10
65074;DHT22;52218;51.224;-2.328;2022-07-23T12:51:50;23.40;89.20
65074;DHT22;52218;51.224;-2.328;2022-07-23T12:55:32;23.40;88.90
65074;DHT22;52218;51.224;-2.328;2022-07-23T12:59:35;23.20;89.40
65074;DHT22;52218;51.224;-2.328;2022-07-23T13:03:35;23.20;90.00
65074;DHT22;52218;51.224;-2.328;2022-07-23T13:07:19;23.50;89.60
65074;DHT22;52218;51.224;-2.328;2022-07-23T13:11:03;23.50;89.40
65074;DHT22;52218;51.224;-2.328;2022-07-23T13:14:46;23.20;89.60
65074;DHT22;52218;51.224;-2.328;2022-07-23T13:18:28;23.00;90.40
65074;DHT22;52218;51.224;-2.328;2022-07-23T13:22:10;23.20;90.40
65074;DHT22;52218;51.224;-2.328;2022-07-23T13:25:53;23.80;88.10
65074;DHT22;52218;51.224;-2.328;2022-07-23T13:29:36;24.00;87.60
65074;DHT22;52218;51.224;-2.328;2022-07-23T13:33:21;24.00;87.80
65074;DHT22;52218;51.224;-2.328;2022-07-23T13:37:04;23.80;88.10
65074;DHT22;52218;51.224;-2.328;2022-07-23T13:40:48;23.50;88.60
65074;DHT22;52218;51.224;-2.328;2022-07-23T13:44:31;23.10;89.50
65074;DHT22;52218;51.224;-2.328;2022-07-23T13:48:15;22.80;90.10
65074;DHT22;52218;51.224;-2.328;2022-07-23T13:51:58;22.70;90.60
65074;DHT22;52218;51.224;-2.328;2022-07-23T13:55:41;23.00;90.60
65074;DHT22;52218;51.224;-2.328;2022-07-23T13:59:29;23.60;89.50
65074;DHT22;52218;51.224;-2.328;2022-07-23T14:03:13;23.80;88.70
65074;DHT22;52218;51.224;-2.328;2022-07-23T14:06:56;23.70;89.20
65074;DHT22;52218;51.224;-2.328;2022-07-23T14:10:38;23.60;89.50
65074;DHT22;52218;51.224;-2.328;2022-07-23T14:14:21;23.60;88.80
65074;DHT22;52218;51.224;-2.328;2022-07-23T14:18:03;23.30;89.50
65074;DHT22;52218;51.224;-2.328;2022-07-23T14:21:45;23.10;90.30
65074;DHT22;52218;51.224;-2.328;2022-07-23T14:25:27;23.00;90.40
65074;DHT22;52218;51.224;-2.328;2022-07-23T14:29:09;23.00;90.30
65074;DHT22;52218;51.224;-2.328;2022-07-23T14:32:53;23.20;89.60
65074;DHT22;52218;51.224;-2.328;2022-07-23T14:36:35;23.40;88.80
65074;DHT22;52218;51.224;-2.328;2022-07-23T14:40:20;23.40;88.70
65074;DHT22;52218;51.224;-2.328;2022-07-23T14:44:04;23.30;89.40
65074;DHT22;52218;51.224;-2.328;2022-07-23T14:47:46;23.20;90.00
65074;DHT22;52218;51.224;-2.328;2022-07-23T14:51:28;23.10;90.40
65074;DHT22;52218;51.224;-2.328;2022-07-23T14:55:10;23.20;90.00
65074;DHT22;52218;51.224;-2.328;2022-07-23T14:58:52;23.10;90.00
65074;DHT22;52218;51.224;-2.328;2022-07-23T15:02:37;22.90;90.30
65074;DHT22;52218;51.224;-2.328;2022-07-23T15:06:22;22.80;90.20
65074;DHT22;52218;51.224;-2.328;2022-07-23T15:10:04;22.90;90.10
65074;DHT22;52218;51.224;-2.328;2022-07-23T15:13:47;22.90;90.10
65074;DHT22;52218;51.224;-2.328;2022-07-23T15:17:30;22.90;90.20
65074;DHT22;52218;51.224;-2.328;2022-07-23T15:21:12;22.90;90.10
65074;DHT22;52218;51.224;-2.328;2022-07-23T15:24:54;22.90;90.20
65074;DHT22;52218;51.224;-2.328;2022-07-23T15:28:38;23.10;89.30
65074;DHT22;52218;51.224;-2.328;2022-07-23T15:32:20;23.30;89.10
65074;DHT22;52218;51.224;-2.328;2022-07-23T15:36:03;23.50;88.80
65074;DHT22;52218;51.224;-2.328;2022-07-23T15:39:46;23.60;87.70
65074;DHT22;52218;51.224;-2.328;2022-07-23T15:43:28;23.70;87.30
65074;DHT22;52218;51.224;-2.328;2022-07-23T15:47:15;23.60;87.20
65074;DHT22;52218;51.224;-2.328;2022-07-23T15:50:58;23.40;87.40
65074;DHT22;52218;51.224;-2.328;2022-07-23T15:54:40;23.20;88.50
65074;DHT22;52218;51.224;-2.328;2022-07-23T15:58:27;22.90;89.40
65074;DHT22;52218;51.224;-2.328;2022-07-23T16:02:11;22.90;89.10
65074;DHT22;52218;51.224;-2.328;2022-07-23T16:05:53;22.90;89.40
65074;DHT22;52218;51.224;-2.328;2022-07-23T16:09:36;22.90;89.30
65074;DHT22;52218;51.224;-2.328;2022-07-23T16:13:18;22.90;89.00
65074;DHT22;52218;51.224;-2.328;2022-07-23T16:17:00;23.00;88.90
65074;DHT22;52218;51.224;-2.328;2022-07-23T16:20:42;23.20;88.50
65074;DHT22;52218;51.224;-2.328;2022-07-23T16:24:24;23.20;88.60
65074;DHT22;52218;51.224;-2.328;2022-07-23T16:28:07;23.10;88.80
65074;DHT22;52218;51.224;-2.328;2022-07-23T16:31:49;23.00;88.80
65074;DHT22;52218;51.224;-2.328;2022-07-23T16:35:31;22.90;89.30
65074;DHT22;52218;51.224;-2.328;2022-07-23T16:39:13;22.90;89.60
65074;DHT22;52218;51.224;-2.328;2022-07-23T16:42:56;22.80;89.50
65074;DHT22;52218;51.224;-2.328;2022-07-23T16:46:39;22.50;90.10
65074;DHT22;52218;51.224;-2.328;2022-07-23T16:50:21;22.40;90.30
65074;DHT22;52218;51.224;-2.328;2022-07-23T16:54:04;22.30;90.70
65074;DHT22;52218;51.224;-2.328;2022-07-23T16:57:49;22.20;90.50
65074;DHT22;52218;51.224;-2.328;2022-07-23T17:01:31;22.20;90.60
65074;DHT22;52218;51.224;-2.328;2022-07-23T17:05:13;22.10;90.50
65074;DHT22;52218;51.224;-2.328;2022-07-23T17:08:55;22.00;90.60
65074;DHT22;52218;51.224;-2.328;2022-07-23T17:12:37;22.00;90.70
65074;DHT22;52218;51.224;-2.328;2022-07-23T17:16:19;22.00;90.80
65074;DHT22;52218;51.224;-2.328;2022-07-23T17:20:04;22.00;90.90
65074;DHT22;52218;51.224;-2.328;2022-07-23T17:23:47;22.10;90.80
65074;DHT22;52218;51.224;-2.328;2022-07-23T17:27:29;22.00;90.70
65074;DHT22;52218;51.224;-2.328;2022-07-23T17:31:11;21.90;91.20
65074;DHT22;52218;51.224;-2.328;2022-07-23T17:34:53;21.70;91.50
65074;DHT22;52218;51.224;-2.328;2022-07-23T17:38:35;21.50;91.90
65074;DHT22;52218;51.224;-2.328;2022-07-23T17:42:17;21.30;92.00
65074;DHT22;52218;51.224;-2.328;2022-07-23T17:45:59;21.30;92.20
65074;DHT22;52218;51.224;-2.328;2022-07-23T17:49:41;21.20;92.50
65074;DHT22;52218;51.224;-2.328;2022-07-23T17:53:24;21.10;92.80
65074;DHT22;52218;51.224;-2.328;2022-07-23T17:57:07;21.00;93.00
65074;DHT22;52218;51.224;-2.328;2022-07-23T18:00:49;21.00;93.20
65074;DHT22;52218;51.224;-2.328;2022-07-23T18:04:31;21.00;93.30
65074;DHT22;52218;51.224;-2.328;2022-07-23T18:08:13;21.00;92.90
65074;DHT22;52218;51.224;-2.328;2022-07-23T18:11:55;21.00;93.10
65074;DHT22;52218;51.224;-2.328;2022-07-23T18:15:37;21.00;93.10
65074;DHT22;52218;51.224;-2.328;2022-07-23T18:19:19;20.90;93.10
65074;DHT22;52218;51.224;-2.328;2022-07-23T18:23:01;20.90;93.40
65074;DHT22;52218;51.224;-2.328;2022-07-23T18:26:44;20.90;93.60
65074;DHT22;52218;51.224;-2.328;2022-07-23T18:30:26;20.90;93.80
65074;DHT22;52218;51.224;-2.328;2022-07-23T18:34:08;20.80;93.80
65074;DHT22;52218;51.224;-2.328;2022-07-23T18:37:51;20.70;94.10
65074;DHT22;52218;51.224;-2.328;2022-07-23T18:41:34;20.60;94.20
65074;DHT22;52218;51.224;-2.328;2022-07-23T18:45:16;20.60;94.40
65074;DHT22;52218;51.224;-2.328;2022-07-23T18:48:59;20.50;94.70
65074;DHT22;52218;51.224;-2.328;2022-07-23T18:52:41;20.40;94.80
65074;DHT22;52218;51.224;-2.328;2022-07-23T18:56:23;20.40;94.80
65074;DHT22;52218;51.224;-2.328;2022-07-23T19:00:07;20.30;95.00
65074;DHT22;52218;51.224;-2.328;2022-07-23T19:03:49;20.30;95.10
65074;DHT22;52218;51.224;-2.328;2022-07-23T19:07:31;20.30;95.20
65074;DHT22;52218;51.224;-2.328;2022-07-23T19:11:13;20.20;95.40
65074;DHT22;52218;51.224;-2.328;2022-07-23T19:14:55;20.10;95.50
65074;DHT22;52218;51.224;-2.328;2022-07-23T19:18:37;20.10;95.50
65074;DHT22;52218;51.224;-2.328;2022-07-23T19:22:19;20.00;95.70
65074;DHT22;52218;51.224;-2.328;2022-07-23T19:26:02;19.90;95.80
65074;DHT22;52218;51.224;-2.328;2022-07-23T19:29:49;19.80;96.00
65074;DHT22;52218;51.224;-2.328;2022-07-23T19:33:31;19.70;96.20
65074;DHT22;52218;51.224;-2.328;2022-07-23T19:37:13;19.70;96.30
65074;DHT22;52218;51.224;-2.328;2022-07-23T19:40:56;19.70;96.50
65074;DHT22;52218;51.224;-2.328;2022-07-23T19:44:38;19.60;96.50
65074;DHT22;52218;51.224;-2.328;2022-07-23T19:48:20;19.60;96.60
65074;DHT22;52218;51.224;-2.328;2022-07-23T19:52:03;19.60;96.70
65074;DHT22;52218;51.224;-2.328;2022-07-23T19:55:45;19.50;96.60
65074;DHT22;52218;51.224;-2.328;2022-07-23T19:59:27;19.50;96.80
65074;DHT22;52218;51.224;-2.328;2022-07-23T20:03:09;19.50;96.80
65074;DHT22;52218;51.224;-2.328;2022-07-23T20:06:51;19.40;96.90
65074;DHT22;52218;51.224;-2.328;2022-07-23T20:10:33;19.40;97.00
65074;DHT22;52218;51.224;-2.328;2022-07-23T20:14:15;19.30;97.10
65074;DHT22;52218;51.224;-2.328;2022-07-23T20:17:57;19.30;97.30
65074;DHT22;52218;51.224;-2.328;2022-07-23T20:21:39;19.20;97.30
65074;DHT22;52218;51.224;-2.328;2022-07-23T20:25:25;19.20;97.40
65074;DHT22;52218;51.224;-2.328;2022-07-23T20:29:07;19.20;97.50
65074;DHT22;52218;51.224;-2.328;2022-07-23T20:32:49;19.20;97.60
65074;DHT22;52218;51.224;-2.328;2022-07-23T20:36:32;19.10;97.70
65074;DHT22;52218;51.224;-2.328;2022-07-23T20:40:14;19.10;97.70
65074;DHT22;52218;51.224;-2.328;2022-07-23T20:43:56;19.10;97.80
65074;DHT22;52218;51.224;-2.328;2022-07-23T20:47:38;19.10;97.80
65074;DHT22;52218;51.224;-2.328;2022-07-23T20:51:20;19.10;97.90
65074;DHT22;52218;51.224;-2.328;2022-07-23T20:55:03;19.00;98.00
65074;DHT22;52218;51.224;-2.328;2022-07-23T20:58:46;19.00;98.20
65074;DHT22;52218;51.224;-2.328;2022-07-23T21:02:28;19.00;98.20
65074;DHT22;52218;51.224;-2.328;2022-07-23T21:06:10;18.90;98.40
65074;DHT22;52218;51.224;-2.328;2022-07-23T21:09:52;18.90;98.40
65074;DHT22;52218;51.224;-2.328;2022-07-23T21:13:34;18.90;98.50
65074;DHT22;52218;51.224;-2.328;2022-07-23T21:17:16;18.90;98.50
65074;DHT22;52218;51.224;-2.328;2022-07-23T21:20:58;18.80;98.60
65074;DHT22;52218;51.224;-2.328;2022-07-23T21:24:50;18.80;98.60
65074;DHT22;52218;51.224;-2.328;2022-07-23T21:28:32;18.80;98.60
65074;DHT22;52218;51.224;-2.328;2022-07-23T21:32:14;18.80;98.60
65074;DHT22;52218;51.224;-2.328;2022-07-23T21:35:56;18.70;98.80
65074;DHT22;52218;51.224;-2.328;2022-07-23T21:39:38;18.70;98.80
65074;DHT22;52218;51.224;-2.328;2022-07-23T21:43:20;18.70;98.80
65074;DHT22;52218;51.224;-2.328;2022-07-23T21:47:04;18.70;98.90
65074;DHT22;52218;51.224;-2.328;2022-07-23T21:50:46;18.70;98.90
65074;DHT22;52218;51.224;-2.328;2022-07-23T21:54:27;18.70;99.00
65074;DHT22;52218;51.224;-2.328;2022-07-23T21:58:10;18.70;99.00
65074;DHT22;52218;51.224;-2.328;2022-07-23T22:01:52;18.80;99.00
65074;DHT22;52218;51.224;-2.328;2022-07-23T22:05:34;18.80;99.00
65074;DHT22;52218;51.224;-2.328;2022-07-23T22:09:16;18.70;99.00
65074;DHT22;52218;51.224;-2.328;2022-07-23T22:12:58;18.70;99.10
65074;DHT22;52218;51.224;-2.328;2022-07-23T22:16:40;18.70;99.10
65074;DHT22;52218;51.224;-2.328;2022-07-23T22:20:22;18.70;99.10
65074;DHT22;52218;51.224;-2.328;2022-07-23T22:24:05;18.70;99.10
65074;DHT22;52218;51.224;-2.328;2022-07-23T22:27:47;18.80;99.10
65074;DHT22;52218;51.224;-2.328;2022-07-23T22:31:29;18.80;99.10
65074;DHT22;52218;51.224;-2.328;2022-07-23T22:35:12;18.80;99.10
65074;DHT22;52218;51.224;-2.328;2022-07-23T22:38:55;18.80;99.00
65074;DHT22;52218;51.224;-2.328;2022-07-23T22:42:37;18.70;99.30
65074;DHT22;52218;51.224;-2.328;2022-07-23T22:46:19;18.70;98.90
65074;DHT22;52218;51.224;-2.328;2022-07-23T22:50:03;18.70;98.80
65074;DHT22;52218;51.224;-2.328;2022-07-23T22:53:51;18.70;98.70
65074;DHT22;52218;51.224;-2.328;2022-07-23T22:57:33;18.70;98.60
65074;DHT22;52218;51.224;-2.328;2022-07-23T23:01:15;18.70;98.50
65074;DHT22;52218;51.224;-2.328;2022-07-23T23:04:56;18.70;98.40
65074;DHT22;52218;51.224;-2.328;2022-07-23T23:08:38;18.70;98.40
65074;DHT22;52218;51.224;-2.328;2022-07-23T23:12:20;18.70;98.40
65074;DHT22;52218;51.224;-2.328;2022-07-23T23:16:02;18.70;98.40
65074;DHT22;52218;51.224;-2.328;2022-07-23T23:19:45;18.70;98.40
65074;DHT22;52218;51.224;-2.328;2022-07-23T23:23:27;18.70;98.30
65074;DHT22;52218;51.224;-2.328;2022-07-23T23:27:09;18.70;98.20
65074;DHT22;52218;51.224;-2.328;2022-07-23T23:30:51;18.80;98.20
65074;DHT22;52218;51.224;-2.328;2022-07-23T23:34:33;18.80;98.10
65074;DHT22;52218;51.224;-2.328;2022-07-23T23:38:15;18.70;98.10
65074;DHT22;52218;51.224;-2.328;2022-07-23T23:41:57;18.80;98.20
65074;DHT22;52218;51.224;-2.328;2022-07-23T23:45:39;18.80;98.10
65074;DHT22;52218;51.224;-2.328;2022-07-23T23:49:21;18.80;98.10